Time;durP1;ratioP1;P1;durP2;ratioP2;P2;SDS_P1;SDS_P2;PMS_P1;PMS_P2;Temp;Humidity;BMP_temperature;BMP_pressure;BME280_temperature;BME280_humidity;BME280_pressure;Samples;Min_cycle;Max_cycle;Signal;HPM_P1;HPM_P2
2022/10/18 00:01:36;;;;;;;5.40;3.60;;;13.60;99.90;;;;;;5069062;28;20199;-77
2022/10/18 00:04:02;;;;;;;7.77;4.07;;;13.50;99.90;;;;;;5069296;28;20183;-76
2022/10/18 00:06:27;;;;;;;5.33;4.20;;;13.60;99.90;;;;;;5068855;28;20183;-76
2022/10/18 00:08:53;;;;;;;5.47;3.27;;;13.70;99.90;;;;;;5069093;28;20424;-76
2022/10/18 00:11:19;;;;;;;6.83;4.10;;;13.60;99.90;;;;;;5068860;28;20228;-76
2022/10/18 00:13:45;;;;;;;6.90;3.80;;;13.60;99.90;;;;;;5070306;28;20187;-77
2022/10/18 00:16:14;;;;;;;7.43;4.30;;;13.70;99.90;;;;;;5068609;28;20183;-77
2022/10/18 00:18:40;;;;;;;6.93;3.67;;;13.70;99.90;;;;;;5068533;28;20261;-77
2022/10/18 00:21:10;;;;;;;4.77;3.50;;;13.80;99.90;;;;;;5070052;28;20461;-77
2022/10/18 00:23:36;;;;;;;8.93;4.10;;;13.80;99.90;;;;;;5069864;28;20421;-77
2022/10/18 00:26:18;;;;;;;19.50;5.23;;;13.80;99.90;;;;;;5068437;28;20429;-77
2022/10/18 00:28:44;;;;;;;8.10;3.43;;;13.80;99.90;;;;;;5069985;28;20422;-77
2022/10/18 00:31:25;;;;;;;7.53;5.23;;;13.80;99.90;;;;;;5085066;28;20957;-76
2022/10/18 00:33:54;;;;;;;8.33;3.93;;;13.90;99.90;;;;;;5085015;28;20425;-77
2022/10/18 00:36:20;;;;;;;11.00;4.77;;;13.90;99.90;;;;;;5085146;28;20956;-78
2022/10/18 00:38:46;;;;;;;4.97;3.73;;;13.80;99.90;;;;;;5068445;28;20473;-77
2022/10/18 00:41:15;;;;;;;12.20;4.57;;;13.80;99.90;;;;;;5069733;28;21324;-77
2022/10/18 00:43:59;;;;;;;11.43;4.37;;;13.80;99.90;;;;;;5051641;28;20467;-77
2022/10/18 00:46:28;;;;;;;8.40;3.93;;;13.80;99.90;;;;;;5067967;28;20429;-77
2022/10/18 00:48:56;;;;;;;8.73;4.33;;;13.80;99.90;;;;;;5069500;28;20433;-77
2022/10/18 00:51:24;;;;;;;4.03;3.63;;;13.80;99.90;;;;;;5069237;28;20445;-77
2022/10/18 00:53:50;;;;;;;8.93;4.00;;;13.80;99.90;;;;;;5068213;28;20453;-76
2022/10/18 00:56:16;;;;;;;8.47;4.10;;;13.80;99.90;;;;;;5067957;28;20440;-77
2022/10/18 00:58:43;;;;;;;6.30;4.33;;;13.80;99.90;;;;;;5068825;28;20484;-77
2022/10/18 01:01:08;;;;;;;7.50;4.10;;;13.80;99.90;;;;;;5051002;28;20511;-76
2022/10/18 01:03:36;;;;;;;8.67;4.77;;;13.80;99.90;;;;;;5067642;28;20944;-77
2022/10/18 01:06:01;;;;;;;8.93;4.17;;;13.80;99.90;;;;;;5069038;28;20312;-76
2022/10/18 01:08:31;;;;;;;6.10;4.00;;;13.80;99.90;;;;;;5067542;28;20888;-76
2022/10/18 01:11:03;;;;;;;11.40;4.20;;;13.80;99.90;;;;;;5068984;28;20195;-76
2022/10/18 01:14:02;;;;;;;11.43;4.73;;;13.70;99.90;;;;;;5069066;28;20459;-77
2022/10/18 01:16:43;;;;;;;10.50;4.63;;;13.70;99.90;;;;;;5068972;28;20420;-77
2022/10/18 01:19:29;;;;;;;12.03;4.40;;;13.70;99.90;;;;;;5068954;28;20542;-76
2022/10/18 01:22:01;;;;;;;8.17;4.50;;;13.70;99.90;;;;;;5054496;28;20441;-77
2022/10/18 01:24:57;;;;;;;13.03;4.20;;;13.70;99.90;;;;;;5068756;28;20413;-77
2022/10/18 01:27:31;;;;;;;7.73;4.00;;;13.70;99.90;;;;;;5067269;28;20750;-76
2022/10/18 01:30:06;;;;;;;8.83;4.40;;;13.70;99.90;;;;;;5069166;28;20414;-76
2022/10/18 01:32:41;;;;;;;8.53;4.67;;;13.70;99.90;;;;;;5067240;28;20508;-77
2022/10/18 01:35:13;;;;;;;9.20;4.50;;;13.70;99.90;;;;;;5084060;28;20963;-77
2022/10/18 01:37:42;;;;;;;8.57;4.70;;;13.70;99.90;;;;;;5050723;28;20429;-77
2022/10/18 01:40:11;;;;;;;8.50;4.20;;;13.70;99.90;;;;;;5067490;28;20887;-77
2022/10/18 01:42:36;;;;;;;9.67;5.23;;;13.70;99.90;;;;;;5067455;28;20425;-77
2022/10/18 01:45:03;;;;;;;16.63;5.00;;;13.70;99.90;;;;;;5068427;28;20927;-77
2022/10/18 01:47:30;;;;;;;10.00;4.77;;;13.80;99.90;;;;;;5083646;28;20182;-77
2022/10/18 01:50:00;;;;;;;6.50;4.30;;;13.80;99.90;;;;;;5068668;28;20448;-77
2022/10/18 01:52:26;;;;;;;8.23;4.63;;;13.80;99.90;;;;;;5068733;28;20413;-76
2022/10/18 01:54:54;;;;;;;9.20;5.00;;;13.90;99.90;;;;;;5067276;28;20456;-77
2022/10/18 01:57:51;;;;;;;10.10;4.97;;;13.90;99.90;;;;;;5083739;28;20455;-77
2022/10/18 02:00:24;;;;;;;15.30;4.40;;;13.90;99.90;;;;;;5056288;28;20565;-76
2022/10/18 02:02:55;;;;;;;9.20;4.80;;;14.00;99.90;;;;;;5067403;28;20413;-77
2022/10/18 02:05:30;;;;;;;5.37;3.90;;;14.00;99.90;;;;;;5083954;28;20430;-77
2022/10/18 02:08:01;;;;;;;7.13;4.77;;;14.10;99.90;;;;;;5067272;28;20420;-77
2022/10/18 02:10:41;;;;;;;19.30;4.40;;;14.10;99.90;;;;;;5068984;28;20437;-77
2022/10/18 02:13:10;;;;;;;8.50;4.13;;;14.10;99.90;;;;;;5067591;28;21108;-77
2022/10/18 02:15:40;;;;;;;9.63;4.40;;;14.10;99.90;;;;;;5083839;28;20921;-76
2022/10/18 02:18:17;;;;;;;6.13;4.50;;;14.20;99.90;;;;;;5050635;28;20944;-77
2022/10/18 02:20:44;;;;;;;5.80;4.10;;;14.30;99.90;;;;;;5066984;28;20540;-77
2022/10/18 02:23:13;;;;;;;10.53;5.70;;;14.20;99.90;;;;;;5068446;28;20941;-78
2022/10/18 02:25:39;;;;;;;8.23;4.20;;;14.20;99.90;;;;;;5050879;28;21008;-77
2022/10/18 02:28:05;;;;;;;7.57;4.37;;;14.10;99.90;;;;;;5067280;28;20516;-77
2022/10/18 02:30:51;;;;;;;9.07;5.53;;;14.20;99.90;;;;;;5067952;28;20228;-77
2022/10/18 02:33:52;;;;;;;11.00;5.20;;;14.20;99.90;;;;;;5067359;28;20436;-77
2022/10/18 02:36:25;;;;;;;10.20;4.73;;;14.20;99.90;;;;;;5061655;28;20430;-77
2022/10/18 02:38:55;;;;;;;15.77;4.70;;;14.20;99.90;;;;;;5067239;28;20481;-77
2022/10/18 02:41:25;;;;;;;9.43;4.60;;;14.20;99.90;;;;;;5067379;28;20453;-77
2022/10/18 02:43:54;;;;;;;6.47;4.50;;;14.20;99.90;;;;;;5068724;28;21001;-77
2022/10/18 02:46:20;;;;;;;9.03;4.00;;;14.30;99.90;;;;;;5066552;28;20425;-77
2022/10/18 02:48:45;;;;;;;9.73;4.30;;;14.30;99.90;;;;;;5066663;28;20490;-77
2022/10/18 02:51:11;;;;;;;8.23;3.87;;;14.30;99.90;;;;;;5066262;28;20441;-76
2022/10/18 02:53:37;;;;;;;7.60;4.03;;;14.30;99.90;;;;;;5066658;28;20199;-76
2022/10/18 02:56:03;;;;;;;9.37;4.20;;;14.30;99.90;;;;;;5066740;28;20194;-77
2022/10/18 02:58:28;;;;;;;5.07;3.67;;;14.30;99.90;;;;;;5069720;28;20257;-76
2022/10/18 03:00:54;;;;;;;10.80;4.80;;;14.30;99.90;;;;;;5070317;28;20511;-76
2022/10/18 03:03:20;;;;;;;8.60;4.03;;;14.30;99.90;;;;;;5070205;28;20278;-76
2022/10/18 03:05:49;;;;;;;7.40;4.07;;;14.30;99.90;;;;;;5071712;28;20191;-77
2022/10/18 03:08:14;;;;;;;6.87;3.90;;;14.30;99.90;;;;;;5072310;28;20216;-77
2022/10/18 03:10:43;;;;;;;7.57;3.93;;;14.30;99.90;;;;;;5071849;28;20491;-76
2022/10/18 03:13:09;;;;;;;6.10;4.07;;;14.30;99.90;;;;;;5070462;28;20244;-77
2022/10/18 03:15:37;;;;;;;8.00;3.53;;;14.30;99.90;;;;;;5071895;28;20433;-77
2022/10/18 03:18:02;;;;;;;9.27;3.90;;;14.30;99.90;;;;;;5087743;28;20457;-76
2022/10/18 03:20:28;;;;;;;7.83;4.13;;;14.40;99.90;;;;;;5070870;28;20474;-77
2022/10/18 03:22:54;;;;;;;4.97;3.40;;;14.30;99.90;;;;;;5070814;28;20236;-77
2022/10/18 03:25:19;;;;;;;20.00;4.10;;;14.30;99.90;;;;;;5070186;28;20190;-77
2022/10/18 03:27:45;;;;;;;10.13;4.40;;;14.40;99.90;;;;;;5070455;28;20244;-76
2022/10/18 03:30:12;;;;;;;6.87;4.30;;;14.40;99.90;;;;;;5070239;28;20741;-77
2022/10/18 03:32:38;;;;;;;5.20;3.47;;;14.40;99.90;;;;;;5071371;28;20176;-77
2022/10/18 03:35:05;;;;;;;13.40;6.00;;;14.40;99.90;;;;;;5086737;28;20441;-77
2022/10/18 03:37:31;;;;;;;13.50;4.60;;;14.40;99.90;;;;;;5086799;28;20449;-76
2022/10/18 03:39:57;;;;;;;12.17;4.10;;;14.40;99.90;;;;;;5069752;28;20503;-77
2022/10/18 03:42:22;;;;;;;9.07;4.57;;;14.30;99.90;;;;;;5071700;28;20616;-77
2022/10/18 03:44:48;;;;;;;10.50;3.60;;;14.30;99.90;;;;;;5069982;28;20238;-77
2022/10/18 03:47:13;;;;;;;11.73;3.90;;;14.30;99.90;;;;;;5070053;28;20733;-77
2022/10/18 03:49:39;;;;;;;5.73;3.60;;;14.30;99.90;;;;;;5069984;28;20195;-77
2022/10/18 03:52:05;;;;;;;5.20;4.17;;;14.30;99.90;;;;;;5069999;28;20213;-78
2022/10/18 03:54:30;;;;;;;6.80;4.40;;;14.30;99.90;;;;;;5086890;28;20187;-77
2022/10/18 03:56:56;;;;;;;9.17;4.70;;;14.30;99.90;;;;;;5070233;28;20215;-77
2022/10/18 03:59:22;;;;;;;10.23;4.77;;;14.40;99.90;;;;;;5069581;28;20211;-76
2022/10/18 04:01:48;;;;;;;12.60;4.60;;;14.40;99.90;;;;;;5069137;28;20229;-77
2022/10/18 04:04:14;;;;;;;5.50;4.10;;;14.40;99.90;;;;;;5069210;28;20179;-76
2022/10/18 04:06:41;;;;;;;12.27;5.23;;;14.50;99.90;;;;;;5070342;28;20933;-78
2022/10/18 04:09:07;;;;;;;8.83;4.60;;;14.40;99.90;;;;;;5085977;28;20430;-77
2022/10/18 04:11:33;;;;;;;8.23;4.20;;;14.40;99.90;;;;;;5069075;28;20449;-77
2022/10/18 04:13:58;;;;;;;8.77;4.70;;;14.40;99.90;;;;;;5069123;28;21067;-77
2022/10/18 04:16:24;;;;;;;8.67;4.87;;;14.30;99.90;;;;;;5069331;28;20789;-77
2022/10/18 04:18:50;;;;;;;8.67;4.60;;;14.30;99.90;;;;;;5069052;28;20220;-77
2022/10/18 04:21:15;;;;;;;8.93;3.80;;;14.40;99.90;;;;;;5069944;28;20196;-76
2022/10/18 04:23:41;;;;;;;7.10;3.53;;;14.40;99.90;;;;;;5085237;28;20188;-77
2022/10/18 04:26:07;;;;;;;9.97;4.00;;;14.40;99.90;;;;;;5067243;28;20190;-77
2022/10/18 04:28:34;;;;;;;11.03;4.40;;;14.40;99.90;;;;;;5068355;28;20187;-77
2022/10/18 04:31:00;;;;;;;4.17;3.53;;;14.40;99.90;;;;;;5083640;28;20481;-77
2022/10/18 04:33:26;;;;;;;6.77;4.43;;;14.40;99.90;;;;;;5067742;28;20472;-77
2022/10/18 04:35:52;;;;;;;6.70;3.90;;;14.30;99.90;;;;;;5067809;28;20872;-78
2022/10/18 04:38:18;;;;;;;11.30;4.67;;;14.30;99.90;;;;;;5067609;28;20855;-77
2022/10/18 04:40:44;;;;;;;5.23;3.57;;;14.40;99.90;;;;;;5084405;28;20454;-77
2022/10/18 04:43:11;;;;;;;5.90;4.00;;;14.40;99.90;;;;;;5067917;28;20434;-77
2022/10/18 04:45:36;;;;;;;8.83;4.00;;;14.40;99.90;;;;;;5067262;28;20432;-77
2022/10/18 04:48:02;;;;;;;4.37;3.10;;;14.30;99.90;;;;;;5067111;28;20187;-76
2022/10/18 04:50:28;;;;;;;9.73;3.67;;;14.30;99.90;;;;;;5067023;28;20210;-76
2022/10/18 04:52:54;;;;;;;4.70;3.00;;;14.40;99.90;;;;;;5083200;28;20183;-77
2022/10/18 04:55:20;;;;;;;4.87;2.80;;;14.60;99.90;;;;;;5049820;28;20187;-77
2022/10/18 04:57:45;;;;;;;8.60;3.20;;;14.70;99.90;;;;;;5067836;28;20199;-77
2022/10/18 05:00:11;;;;;;;5.63;3.20;;;14.70;99.90;;;;;;5066328;28;20473;-77
2022/10/18 05:02:37;;;;;;;4.40;2.80;;;14.70;99.90;;;;;;5066217;28;20710;-77
2022/10/18 05:05:03;;;;;;;5.43;2.80;;;14.80;99.90;;;;;;5082950;28;20460;-77
2022/10/18 05:07:29;;;;;;;5.20;2.93;;;14.90;99.90;;;;;;5065836;28;20179;-77
2022/10/18 05:09:55;;;;;;;11.17;2.67;;;15.00;99.90;;;;;;5067871;28;20499;-76
2022/10/18 05:12:21;;;;;;;5.17;2.50;;;15.30;99.90;;;;;;5083062;28;20665;-78
2022/10/18 05:14:47;;;;;;;3.60;2.20;;;15.60;99.90;;;;;;5048931;28;20207;-77
2022/10/18 05:17:13;;;;;;;6.93;2.20;;;15.80;99.90;;;;;;5067448;28;20517;-76
2022/10/18 05:19:39;;;;;;;7.33;1.90;;;15.90;99.90;;;;;;5065320;28;20556;-77
2022/10/18 05:22:04;;;;;;;10.90;3.77;;;15.90;99.90;;;;;;5065780;28;21019;-77
2022/10/18 05:24:30;;;;;;;5.30;3.40;;;15.70;99.90;;;;;;5068051;28;20179;-77
2022/10/18 05:26:56;;;;;;;8.00;4.00;;;15.50;99.90;;;;;;5066171;28;20179;-77
2022/10/18 05:29:22;;;;;;;18.80;4.50;;;15.30;99.90;;;;;;5067795;28;20187;-76
2022/10/18 05:31:49;;;;;;;11.10;3.60;;;15.10;99.90;;;;;;5066136;28;20441;-76
2022/10/18 05:34:15;;;;;;;4.83;3.53;;;15.00;99.90;;;;;;5066361;28;20424;-76
2022/10/18 05:36:40;;;;;;;8.30;3.70;;;15.00;99.90;;;;;;5066413;28;20438;-75
2022/10/18 05:39:06;;;;;;;6.57;3.07;;;14.90;99.90;;;;;;5067362;28;20480;-76
2022/10/18 05:41:32;;;;;;;7.33;4.03;;;14.90;99.90;;;;;;5067376;28;20211;-75
2022/10/18 05:44:01;;;;;;;11.00;4.27;;;14.90;99.90;;;;;;5069328;28;20178;-77
2022/10/18 05:46:28;;;;;;;6.23;4.23;;;14.80;99.90;;;;;;5069659;28;20413;-76
2022/10/18 05:48:53;;;;;;;4.93;3.67;;;14.70;99.90;;;;;;5067926;28;20430;-77
2022/10/18 05:51:19;;;;;;;8.73;4.10;;;14.60;99.90;;;;;;5067446;28;20455;-76
2022/10/18 05:53:45;;;;;;;7.03;4.50;;;14.50;99.90;;;;;;5067395;28;20188;-77
2022/10/18 05:56:11;;;;;;;5.60;4.00;;;14.40;99.90;;;;;;5068156;28;20187;-76
2022/10/18 05:58:37;;;;;;;12.47;4.07;;;14.30;99.90;;;;;;5068656;28;20219;-77
2022/10/18 06:01:04;;;;;;;10.63;4.60;;;14.30;99.90;;;;;;5083739;28;20206;-77
2022/10/18 06:03:30;;;;;;;6.17;4.10;;;14.30;99.90;;;;;;5068210;28;20413;-78
2022/10/18 06:06:08;;;;;;;10.70;3.70;;;14.10;99.90;;;;;;5066690;28;20493;-78
2022/10/18 06:08:34;;;;;;;8.30;4.80;;;14.10;99.90;;;;;;5082870;28;20504;-78
2022/10/18 06:11:04;;;;;;;8.80;3.60;;;14.20;99.90;;;;;;5082456;28;20452;-78
2022/10/18 06:13:30;;;;;;;10.20;4.17;;;14.20;99.90;;;;;;5067606;28;20410;-77
2022/10/18 06:15:58;;;;;;;9.30;4.70;;;14.20;99.90;;;;;;5083154;28;20498;-77
2022/10/18 06:18:24;;;;;;;11.50;5.17;;;14.20;99.90;;;;;;5066131;28;20214;-78
2022/10/18 06:20:56;;;;;;;7.43;4.57;;;14.10;99.90;;;;;;5065708;28;20451;-78
2022/10/18 06:23:22;;;;;;;10.33;4.30;;;14.00;99.90;;;;;;5082479;28;20584;-77
2022/10/18 06:25:48;;;;;;;5.70;4.83;;;14.00;99.90;;;;;;5065419;28;20779;-77
2022/10/18 06:28:13;;;;;;;12.80;4.10;;;14.00;99.90;;;;;;5065604;28;20673;-77
2022/10/18 06:30:39;;;;;;;9.00;4.00;;;13.90;99.90;;;;;;5066225;28;20210;-78
2022/10/18 06:33:04;;;;;;;9.90;4.40;;;13.80;99.90;;;;;;5053197;28;20670;-78
2022/10/18 06:35:30;;;;;;;7.47;3.97;;;13.90;99.90;;;;;;5053646;28;20183;-77
2022/10/18 06:37:56;;;;;;;12.17;4.00;;;13.90;99.90;;;;;;5053678;28;20187;-78
2022/10/18 06:40:22;;;;;;;7.47;3.60;;;13.90;99.90;;;;;;5053663;28;20221;-78
2022/10/18 06:42:48;;;;;;;10.40;4.60;;;14.00;99.90;;;;;;5071236;28;20474;-78
2022/10/18 06:45:14;;;;;;;14.03;4.97;;;14.20;99.90;;;;;;5070065;28;20278;-78
2022/10/18 06:47:40;;;;;;;7.03;3.97;;;14.30;99.90;;;;;;5069894;28;20425;-77
2022/10/18 06:50:06;;;;;;;13.10;4.40;;;14.40;99.90;;;;;;5071421;28;20444;-78
2022/10/18 06:52:32;;;;;;;6.10;3.50;;;14.60;99.90;;;;;;5069754;28;20192;-77
2022/10/18 06:54:57;;;;;;;4.87;2.20;;;14.80;99.90;;;;;;5070058;28;20479;-78
2022/10/18 06:57:23;;;;;;;4.60;2.70;;;15.50;99.90;;;;;;5070174;28;20210;-77
2022/10/18 06:59:50;;;;;;;5.00;2.40;;;15.80;99.90;;;;;;5070169;28;20207;-78
2022/10/18 07:02:18;;;;;;;11.53;2.90;;;16.30;99.90;;;;;;5070198;28;20427;-77
2022/10/18 07:04:44;;;;;;;3.03;2.30;;;16.70;99.90;;;;;;5070656;28;20433;-77
2022/10/18 07:07:10;;;;;;;8.63;2.03;;;17.20;99.90;;;;;;5053327;28;20426;-77
2022/10/18 07:09:35;;;;;;;5.13;2.90;;;17.60;99.90;;;;;;5069941;28;20196;-78
2022/10/18 07:12:01;;;;;;;9.43;3.40;;;17.70;99.90;;;;;;5069985;28;20217;-78
2022/10/18 07:14:27;;;;;;;5.80;2.70;;;17.90;99.90;;;;;;5053387;28;20268;-78
2022/10/18 07:16:52;;;;;;;11.93;2.57;;;18.10;99.90;;;;;;5070001;28;20189;-78
2022/10/18 07:19:18;;;;;;;4.07;2.07;;;18.20;99.90;;;;;;5069949;28;20471;-78
2022/10/18 07:21:46;;;;;;;4.50;2.80;;;18.40;99.90;;;;;;5069197;28;20810;-77
2022/10/18 07:24:11;;;;;;;6.17;2.53;;;18.50;99.90;;;;;;5052700;28;20580;-77
2022/10/18 07:26:37;;;;;;;2.47;2.27;;;18.70;99.90;;;;;;5069274;28;20429;-78
2022/10/18 07:29:10;;;;;;;2.50;2.30;;;18.80;99.90;;;;;;5069079;28;20202;-77
2022/10/18 07:31:39;;;;;;;2.80;2.40;;;18.90;99.90;;;;;;5086142;28;20210;-78
2022/10/18 07:34:07;;;;;;;8.00;2.10;;;19.00;99.90;;;;;;5068992;28;20974;-78
2022/10/18 07:36:33;;;;;;;5.97;3.07;;;19.10;99.90;;;;;;5070318;28;20457;-77
2022/10/18 07:38:59;;;;;;;5.07;2.67;;;19.20;99.90;;;;;;5069987;28;20471;-77
2022/10/18 07:41:25;;;;;;;5.90;2.93;;;19.30;99.90;;;;;;5068632;28;20441;-78
2022/10/18 07:43:51;;;;;;;7.13;2.33;;;19.40;99.90;;;;;;5067674;28;20186;-77
2022/10/18 07:46:18;;;;;;;8.30;2.10;;;19.50;99.90;;;;;;5085282;28;20428;-78
2022/10/18 07:48:44;;;;;;;3.97;3.00;;;19.50;99.90;;;;;;5084998;28;20435;-78
2022/10/18 07:51:10;;;;;;;8.43;2.50;;;19.50;99.90;;;;;;5051194;28;20456;-78
2022/10/18 07:53:36;;;;;;;5.27;2.57;;;19.50;99.90;;;;;;5068361;28;20332;-79
2022/10/18 07:56:19;;;;;;;2.97;2.27;;;19.50;99.90;;;;;;5068411;28;20516;-78
2022/10/18 07:58:50;;;;;;;3.80;2.57;;;19.50;99.90;;;;;;5068147;28;20488;-77
2022/10/18 08:01:15;;;;;;;9.03;2.60;;;19.50;99.90;;;;;;5068327;28;20684;-77
2022/10/18 08:03:42;;;;;;;5.17;2.57;;;19.60;99.90;;;;;;5085284;28;20429;-77
2022/10/18 08:06:10;;;;;;;4.03;2.50;;;19.60;99.90;;;;;;5068916;28;20272;-77
2022/10/18 08:08:38;;;;;;;10.07;2.30;;;19.70;99.90;;;;;;5068917;28;20437;-76
2022/10/18 08:11:19;;;;;;;6.27;2.93;;;19.80;99.90;;;;;;5086236;28;20449;-77
2022/10/18 08:13:45;;;;;;;4.20;2.67;;;19.80;99.90;;;;;;5070962;28;20453;-77
2022/10/18 08:16:14;;;;;;;5.10;2.73;;;19.90;99.90;;;;;;5086112;28;20944;-78
2022/10/18 08:18:39;;;;;;;16.00;2.90;;;19.90;99.90;;;;;;5068987;28;20467;-78
2022/10/18 08:21:07;;;;;;;3.13;2.47;;;20.00;99.90;;;;;;5070051;28;20495;-77
2022/10/18 08:23:34;;;;;;;4.63;2.50;;;20.00;99.90;;;;;;5069149;28;20179;-77
2022/10/18 08:26:08;;;;;;;3.73;2.40;;;20.00;99.90;;;;;;5069068;28;20468;-78
2022/10/18 08:28:36;;;;;;;7.33;2.47;;;20.10;99.90;;;;;;5085748;28;20943;-78
2022/10/18 08:31:10;;;;;;;6.00;2.93;;;20.20;99.90;;;;;;5069901;28;20444;-78
2022/10/18 08:33:38;;;;;;;5.23;2.57;;;20.20;99.90;;;;;;5068355;28;20429;-77
2022/10/18 08:36:05;;;;;;;9.00;2.63;;;20.30;99.90;;;;;;5068138;28;21014;-79
2022/10/18 08:38:32;;;;;;;5.10;2.63;;;20.50;99.90;;;;;;5068180;28;20476;-78
2022/10/18 08:41:16;;;;;;;10.27;2.70;;;20.90;99.90;;;;;;5085004;28;20624;-78
2022/10/18 08:43:51;;;;;;;6.23;2.70;;;21.30;99.90;;;;;;5054478;28;20534;-78
2022/10/18 08:46:16;;;;;;;8.63;2.70;;;21.60;99.90;;;;;;5068344;28;20435;-77
2022/10/18 08:48:47;;;;;;;8.23;3.00;;;22.00;99.90;;;;;;5051902;28;20854;-77
2022/10/18 08:51:44;;;;;;;6.13;2.50;;;22.00;99.90;;;;;;5067914;28;20203;-79
2022/10/18 08:54:12;;;;;;;5.17;2.10;;;22.10;99.90;;;;;;5068519;28;20413;-77
2022/10/18 08:56:43;;;;;;;5.73;2.70;;;22.10;99.90;;;;;;5085378;28;20421;-77
2022/10/18 08:59:10;;;;;;;13.10;2.53;;;21.90;99.90;;;;;;5085472;28;20483;-77
2022/10/18 09:02:06;;;;;;;5.67;2.67;;;21.60;99.90;;;;;;5068088;28;20441;-78
2022/10/18 09:04:50;;;;;;;4.00;2.80;;;21.60;99.90;;;;;;5070333;28;20478;-78
2022/10/18 09:07:44;;;;;;;9.07;2.87;;;21.80;99.90;;;;;;5068514;28;20517;-78
2022/10/18 09:10:26;;;;;;;4.93;2.90;;;22.50;99.90;;;;;;5069736;28;20491;-77
2022/10/18 09:13:00;;;;;;;6.73;2.57;;;22.70;99.90;;;;;;5069414;28;20906;-78
2022/10/18 09:15:26;;;;;;;9.07;2.37;;;23.70;99.90;;;;;;5069209;28;20424;-77
2022/10/18 09:18:03;;;;;;;8.53;2.70;;;24.70;99.90;;;;;;5067881;28;20428;-76
2022/10/18 09:20:46;;;;;;;6.60;2.50;;;25.10;99.40;;;;;;5065300;28;20597;-78
2022/10/18 09:23:20;;;;;;;4.50;2.23;;;25.20;98.60;;;;;;5083838;28;20424;-77
2022/10/18 09:25:56;;;;;;;3.97;2.90;;;25.60;96.70;;;;;;5068603;28;20421;-77
2022/10/18 09:28:41;;;;;;;2.67;2.10;;;25.70;95.30;;;;;;5068812;28;20407;-77
2022/10/18 09:31:24;;;;;;;11.27;2.23;;;26.60;96.10;;;;;;5084228;28;21005;-78
2022/10/18 09:33:50;;;;;;;5.60;2.30;;;27.20;93.60;;;;;;5067590;28;20429;-80
2022/10/18 09:36:36;;;;;;;4.80;2.37;;;27.40;90.20;;;;;;5067367;28;20433;-76
2022/10/18 09:39:09;;;;;;;9.70;2.60;;;27.30;91.00;;;;;;5068424;28;20219;-78
2022/10/18 09:42:11;;;;;;;8.60;2.90;;;27.60;92.00;;;;;;5068556;28;20429;-78
2022/10/18 09:44:41;;;;;;;5.40;2.10;;;28.60;91.10;;;;;;4990196;28;20472;-79
2022/10/18 09:47:26;;;;;;;4.50;2.07;;;27.80;87.70;;;;;;5053164;28;20429;-79
2022/10/18 09:49:59;;;;;;;25.43;3.40;;;27.10;90.20;;;;;;5067205;28;20979;-78
2022/10/18 09:52:32;;;;;;;8.17;2.87;;;26.40;91.10;;;;;;5068719;28;20955;-78
2022/10/18 09:55:11;;;;;;;10.13;3.50;;;25.50;92.90;;;;;;5083709;28;20433;-78
2022/10/18 09:57:49;;;;;;;7.93;3.43;;;24.50;94.40;;;;;;5083002;28;20441;-78
2022/10/18 10:00:23;;;;;;;4.30;2.87;;;24.20;96.10;;;;;;5082593;28;20917;-78
2022/10/18 10:02:49;;;;;;;12.20;3.13;;;24.00;97.00;;;;;;5065529;28;20424;-77
2022/10/18 10:05:14;;;;;;;11.57;2.80;;;23.60;98.30;;;;;;5048305;28;20960;-78
2022/10/18 10:07:43;;;;;;;7.40;3.10;;;23.40;99.20;;;;;;5048560;28;20187;-78
2022/10/18 10:10:20;;;;;;;8.23;3.80;;;23.20;99.90;;;;;;5065589;28;20210;-79
2022/10/18 10:12:47;;;;;;;9.10;3.37;;;23.00;99.90;;;;;;5082404;28;20435;-79
2022/10/18 10:15:22;;;;;;;7.70;3.10;;;22.90;99.90;;;;;;5082407;28;20437;-79
2022/10/18 10:18:00;;;;;;;8.70;3.40;;;22.80;99.90;;;;;;5065404;28;20427;-78
2022/10/18 10:20:50;;;;;;;5.37;2.93;;;22.70;99.90;;;;;;5066615;28;20572;-77
2022/10/18 10:23:24;;;;;;;5.20;3.00;;;22.60;99.90;;;;;;5065066;28;20428;-78
2022/10/18 10:25:53;;;;;;;7.03;3.90;;;22.50;99.90;;;;;;5066973;28;20422;-77
2022/10/18 10:28:22;;;;;;;6.63;3.53;;;22.50;99.90;;;;;;5065268;28;20431;-77
2022/10/18 10:30:48;;;;;;;6.17;3.80;;;22.30;99.90;;;;;;5065124;28;20438;-77
2022/10/18 10:33:37;;;;;;;7.57;3.77;;;22.30;99.90;;;;;;5048934;28;20857;-77
2022/10/18 10:36:14;;;;;;;7.97;3.90;;;22.30;99.90;;;;;;5048673;28;20452;-77
2022/10/18 10:38:40;;;;;;;8.23;3.40;;;22.60;99.90;;;;;;5082038;28;20461;-77
2022/10/18 10:41:18;;;;;;;4.80;3.90;;;23.00;99.90;;;;;;5065040;28;20451;-78
2022/10/18 10:43:44;;;;;;;6.30;3.90;;;23.40;99.90;;;;;;5067551;28;20174;-78
2022/10/18 10:46:17;;;;;;;6.53;3.43;;;23.60;99.90;;;;;;5066869;28;20524;-76
2022/10/18 10:48:58;;;;;;;9.03;3.67;;;23.40;99.90;;;;;;5067024;28;20415;-77
2022/10/18 10:51:36;;;;;;;9.37;3.60;;;23.40;99.90;;;;;;5081523;28;20449;-77
2022/10/18 10:54:21;;;;;;;13.33;3.70;;;23.30;99.90;;;;;;5065088;28;20504;-79
2022/10/18 10:57:10;;;;;;;8.17;3.00;;;23.30;99.90;;;;;;5081473;28;20439;-79
2022/10/18 10:59:41;;;;;;;6.80;2.87;;;24.10;99.90;;;;;;5065708;28;20515;-78
2022/10/18 11:02:28;;;;;;;6.40;3.10;;;24.50;99.90;;;;;;5067588;28;20422;-76
2022/10/18 11:04:55;;;;;;;12.40;3.93;;;24.90;99.90;;;;;;5082701;28;20436;-75
2022/10/18 11:07:42;;;;;;;10.87;2.97;;;25.30;98.40;;;;;;5065529;28;20975;-78
2022/10/18 11:10:10;;;;;;;3.73;2.30;;;25.00;97.60;;;;;;5066718;28;20434;-79
2022/10/18 11:12:47;;;;;;;7.10;3.10;;;24.90;99.00;;;;;;5067104;28;20481;-78
2022/10/18 11:15:30;;;;;;;4.33;2.70;;;24.70;98.80;;;;;;5065864;28;20436;-78
2022/10/18 11:18:16;;;;;;;12.57;3.00;;;25.00;99.00;;;;;;5067488;28;20538;-78
2022/10/18 11:20:47;;;;;;;6.10;2.47;;;25.50;98.60;;;;;;5068850;28;20538;-78
2022/10/18 11:23:14;;;;;;;5.27;2.53;;;26.10;97.40;;;;;;5068719;28;20468;-78
2022/10/18 11:26:12;;;;;;;9.73;2.87;;;26.60;97.50;;;;;;5069418;28;20440;-77
2022/10/18 11:29:02;;;;;;;10.63;3.30;;;27.00;94.20;;;;;;5069447;28;20423;-78
2022/10/18 11:31:43;;;;;;;3.47;2.90;;;26.90;94.70;;;;;;5070742;28;20443;-77
2022/10/18 11:34:18;;;;;;;6.10;2.20;;;27.20;93.50;;;;;;5086106;28;20440;-78
2022/10/18 11:37:07;;;;;;;6.77;2.77;;;26.90;93.90;;;;;;5070956;28;20424;-79
2022/10/18 11:39:41;;;;;;;9.93;2.23;;;26.90;93.40;;;;;;5086347;28;20496;-77
2022/10/18 11:42:41;;;;;;;4.60;2.97;;;26.90;94.30;;;;;;5070699;28;20429;-76
2022/10/18 11:45:21;;;;;;;7.73;2.53;;;26.40;93.10;;;;;;5069693;28;20425;-77
2022/10/18 11:48:15;;;;;;;5.70;2.80;;;26.40;94.40;;;;;;5071796;28;20417;-76
2022/10/18 11:51:05;;;;;;;7.10;2.70;;;26.60;93.20;;;;;;5086193;28;20445;-78
2022/10/18 11:53:39;;;;;;;4.40;2.60;;;26.50;93.40;;;;;;5087428;28;20406;-78
2022/10/18 11:56:20;;;;;;;4.80;2.60;;;26.40;94.10;;;;;;5069723;28;20848;-77
2022/10/18 11:59:00;;;;;;;8.60;2.80;;;26.40;93.90;;;;;;5069850;28;20477;-78
2022/10/18 12:01:35;;;;;;;8.53;2.27;;;26.10;93.30;;;;;;5070587;28;20456;-77
2022/10/18 12:04:09;;;;;;;4.73;2.77;;;26.00;95.30;;;;;;5087958;28;20425;-77
2022/10/18 12:06:41;;;;;;;2.67;2.30;;;25.90;94.90;;;;;;5070577;28;20514;-77
2022/10/18 12:09:27;;;;;;;4.10;2.30;;;26.10;94.40;;;;;;5071879;28;20434;-77
2022/10/18 12:12:01;;;;;;;4.57;2.40;;;26.10;94.50;;;;;;5071801;28;20441;-77
2022/10/18 12:14:32;;;;;;;4.53;2.37;;;25.70;94.20;;;;;;5086580;28;20421;-77
2022/10/18 12:17:04;;;;;;;2.80;2.60;;;25.90;94.40;;;;;;5068647;28;20510;-76
2022/10/18 12:19:34;;;;;;;5.80;2.83;;;25.80;93.90;;;;;;5069577;28;20586;-77
2022/10/18 12:22:27;;;;;;;6.17;2.53;;;25.70;94.30;;;;;;5085324;28;20453;-77
2022/10/18 12:24:52;;;;;;;4.70;2.17;;;25.60;94.90;;;;;;5070112;28;20417;-78
2022/10/18 12:27:28;;;;;;;3.90;2.40;;;25.30;94.70;;;;;;5068115;28;20421;-79
2022/10/18 12:30:05;;;;;;;6.10;3.03;;;25.00;96.30;;;;;;5084330;28;20662;-78
2022/10/18 12:32:34;;;;;;;5.30;3.00;;;24.60;96.60;;;;;;5067713;28;20474;-78
2022/10/18 12:35:12;;;;;;;5.80;2.90;;;24.30;97.50;;;;;;5067959;28;20425;-78
2022/10/18 12:37:53;;;;;;;6.90;2.43;;;24.10;97.60;;;;;;5084548;28;20435;-78
2022/10/18 12:40:33;;;;;;;5.60;3.37;;;23.80;98.40;;;;;;5069308;28;20492;-78
2022/10/18 12:42:58;;;;;;;8.40;3.30;;;23.60;99.70;;;;;;5068058;28;20432;-77
2022/10/18 12:45:26;;;;;;;8.83;2.77;;;23.30;99.90;;;;;;5084675;28;20973;-76
2022/10/18 12:47:53;;;;;;;5.90;2.90;;;23.20;99.90;;;;;;5084957;28;20181;-80
2022/10/18 12:50:27;;;;;;;11.67;3.50;;;23.00;99.90;;;;;;5068218;28;20469;-78
2022/10/18 12:53:04;;;;;;;5.77;3.33;;;22.80;99.90;;;;;;5051574;28;20443;-78
2022/10/18 12:55:35;;;;;;;6.40;3.00;;;22.70;99.90;;;;;;5069287;28;20422;-78
2022/10/18 12:58:14;;;;;;;4.03;2.37;;;22.70;99.90;;;;;;5068344;28;20445;-79
2022/10/18 13:00:42;;;;;;;10.90;2.80;;;22.70;99.90;;;;;;5067088;28;20553;-78
2022/10/18 13:03:08;;;;;;;3.43;2.47;;;22.70;99.90;;;;;;5067397;28;20782;-78
2022/10/18 13:05:46;;;;;;;4.73;2.57;;;22.70;99.90;;;;;;5067254;28;20431;-78